EDFH

Frankfurt-Hahn Airport

Hahn, Germany
METAR EDFH 151920Z 12007KT 0600 R21/1000V2000N SN BKN001 M00/M00 Q0998
Observed Flight Rules
Dec-15 @ 19:20 UTC (31 minutes ago) Instrument Flight Rules
Wind Visibility Clouds Conditions
120° at 7 knots 595 meters
  • Broken at 100' AGL
  • Snow
Temperatures Readings
Current 0°C / 32°F
Dewpoint 0°C / 32°F
Humidity 100%
Altimeter 29.47" Hg
Pressure 998 hPa
Elevation 498
METAR EDFH 151920Z 12007KT 0600 R21/1000V2000N SN BKN001 M00/M00 Q0998
Observed Flight Rules
Dec-15 @ 19:20 UTC
(31 minutes ago)
LIFR
Wind Visibility
120° at 7 knots 595 meters
Clouds
  • Broken at 100' AGL
Conditions
  • Snow
Temperature Dewpoint
0°C / 32°F 0°C / 32°F
Humidity Altimeter Pressure
100% 29.47" Hg 998 hPa